Hauptseite
METAR-TAF:

METAR-TAF

Flughäfen :

Piggs Peak, Swasiland

Breite: 25-58-04S, Länge: 31-15-03E, Höhe: 1099 m

Beobachtung

Neuester Wetterbericht von vor 1 Stunde und 59 Minuten, um 03:00 UTC
Wind 3 kt aus Nord
Temperatur 16°C
Luftfeuchtigkeit 88%
Luftdruck 1020 hPa

METAR: FDPP 220300Z AUTO 01003KT //// // ////// 16/14 Q1020

Zeit: 06:59 (04:59 UTC)


TAF: fehlend

Wetterbeobachtungen und Prognosen von mehr als 4000 Flughäfen (METAR und TAF Bericht).

Die verfügbaren Stationen werden durch gelbe und rote Markierungen auf der Karte dargestellt.

Führen Sie die Maus auf sie, um den Namen der Station zu sehen.

Darauf klicken, um die Beobachtung von Wetterbeobachtungen und Prognosen zu sehen.

Um die Karte zu ändern : klicken Sie auf den grünen Tasten mit einem schwarzen Kreuz Zum Vergrößern, auf den grünen Button mit einem Gedankenstrich zu verkleinern, oder auf die grünen Pfeile für benachbarte Karten.


METAR-TAF: